createdAt,value
2018-01-24T00:00:18.749Z,99.99
2018-01-24T00:01:18.488Z,99.99
2018-01-24T00:02:18.701Z,99.99
2018-01-24T00:03:18.684Z,99.99
2018-01-24T00:04:18.655Z,99.99
2018-01-24T00:05:18.630Z,99.99
2018-01-24T00:06:18.609Z,99.99
2018-01-24T00:07:18.577Z,99.99
2018-01-24T00:08:18.554Z,99.99
2018-01-24T00:09:18.530Z,99.99
2018-01-24T00:10:18.509Z,99.99
2018-01-24T00:11:18.483Z,99.99
2018-01-24T00:12:18.456Z,99.99
2018-01-24T00:13:18.432Z,99.99
2018-01-24T00:14:18.409Z,99.99
2018-01-24T00:15:18.386Z,99.99
2018-01-24T00:16:18.366Z,99.99
2018-01-24T00:17:18.338Z,99.99
2018-01-24T00:18:18.312Z,99.99
2018-01-24T00:19:18.292Z,99.99
2018-01-24T00:20:18.016Z,99.99
2018-01-24T00:21:18.245Z,99.99
2018-01-24T00:22:18.214Z,99.99
2018-01-24T00:23:18.196Z,99.99
2018-01-24T00:24:17.922Z,99.99
2018-01-24T00:25:18.140Z,99.99
2018-01-24T00:26:18.114Z,99.99
2018-01-24T00:27:18.093Z,99.99
2018-01-24T00:28:17.824Z,99.99
2018-01-24T00:29:18.044Z,99.99
2018-01-24T00:30:18.021Z,99.99
2018-01-24T00:31:17.996Z,99.99
2018-01-24T00:32:17.972Z,99.99
2018-01-24T00:33:17.951Z,99.99
2018-01-24T00:34:17.929Z,99.99
2018-01-24T00:35:17.898Z,99.99
2018-01-24T00:36:17.628Z,99.99
2018-01-24T00:37:17.847Z,99.99
2018-01-24T00:38:17.825Z,99.99
2018-01-24T00:39:17.801Z,99.99
2018-01-24T00:40:17.775Z,99.99
2018-01-24T00:41:17.504Z,99.99
2018-01-24T00:42:17.728Z,99.99
2018-01-24T00:43:17.705Z,99.99
2018-01-24T00:44:17.679Z,99.99
2018-01-24T00:45:17.653Z,99.99
2018-01-24T00:46:17.484Z,99.99
2018-01-24T00:47:17.604Z,99.99
2018-01-24T00:48:17.579Z,99.99
2018-01-24T00:49:17.553Z,99.99
2018-01-24T00:50:17.530Z,99.99
2018-01-24T00:51:17.510Z,99.99
2018-01-24T00:52:17.484Z,99.99
2018-01-24T00:53:17.459Z,99.99
2018-01-24T00:54:17.436Z,99.99
2018-01-24T00:55:17.409Z,99.99
2018-01-24T00:56:17.387Z,99.99
2018-01-24T00:57:17.368Z,99.99
2018-01-24T00:58:17.342Z,99.99
2018-01-24T00:59:17.066Z,99.99
2018-01-24T01:00:17.291Z,99.99
2018-01-24T01:01:17.018Z,99.99
2018-01-24T01:02:17.241Z,99.99
2018-01-24T01:03:17.216Z,99.99
2018-01-24T01:04:17.196Z,99.99
2018-01-24T01:05:17.174Z,99.99
2018-01-24T01:06:17.142Z,99.99
2018-01-24T01:07:17.122Z,99.99
2018-01-24T01:08:16.852Z,99.99
2018-01-24T01:09:17.074Z,99.99
2018-01-24T01:10:17.048Z,99.99
2018-01-24T01:11:17.024Z,99.99
2018-01-24T01:12:17.002Z,99.99
2018-01-24T01:13:16.730Z,99.99
2018-01-24T01:14:16.705Z,99.99
2018-01-24T01:15:16.929Z,99.99
2018-01-24T01:16:16.905Z,99.99
2018-01-24T01:17:16.885Z,99.99
2018-01-24T01:18:16.855Z,99.99
2018-01-24T01:19:16.834Z,99.99
2018-01-24T01:20:16.564Z,99.99
2018-01-24T01:21:16.807Z,99.99
2018-01-24T01:22:16.763Z,99.99
2018-01-24T01:23:16.494Z,99.99
2018-01-24T01:24:16.715Z,99.99
2018-01-24T01:25:16.692Z,99.99
2018-01-24T01:26:16.671Z,99.99
2018-01-24T01:27:16.649Z,99.99
2018-01-24T01:28:16.616Z,99.99
2018-01-24T01:29:16.351Z,99.99
2018-01-24T01:30:16.571Z,99.99
2018-01-24T01:31:16.547Z,99.99
2018-01-24T01:32:16.532Z,99.99
2018-01-24T01:33:16.501Z,99.99
2018-01-24T01:34:16.476Z,99.99
2018-01-24T01:35:16.452Z,99.99
2018-01-24T01:36:16.428Z,99.99
2018-01-24T01:37:16.160Z,99.99
2018-01-24T01:38:16.380Z,99.99
2018-01-24T01:39:16.359Z,99.99
2018-01-24T01:40:16.333Z,99.99
2018-01-24T01:41:16.312Z,99.99
2018-01-24T01:42:16.285Z,99.99
2018-01-24T01:43:16.262Z,99.99
2018-01-24T01:44:16.243Z,99.99
2018-01-24T01:45:16.214Z,99.99
2018-01-24T01:46:16.191Z,99.99
2018-01-24T01:47:16.171Z,99.99
2018-01-24T01:48:16.145Z,99.99
2018-01-24T01:49:16.127Z,99.99
2018-01-24T01:50:16.099Z,99.99
2018-01-24T01:51:16.074Z,99.99
2018-01-24T01:52:16.152Z,99.99
2018-01-24T01:53:16.027Z,99.99
2018-01-24T01:54:16.005Z,99.99
2018-01-24T01:55:15.736Z,99.99
2018-01-24T01:56:15.956Z,99.99
2018-01-24T01:57:15.935Z,99.99
2018-01-24T01:58:15.663Z,99.99
2018-01-24T01:59:15.886Z,99.99
2018-01-24T02:00:15.863Z,99.99
2018-01-24T02:01:15.841Z,99.99
2018-01-24T02:02:15.917Z,99.99
2018-01-24T02:03:15.546Z,99.99
2018-01-24T02:04:15.771Z,99.99
2018-01-24T02:05:15.746Z,99.99
2018-01-24T02:06:15.481Z,99.99
2018-01-24T02:07:15.451Z,99.99
2018-01-24T02:08:15.681Z,99.99
2018-01-24T02:09:15.408Z,99.99
2018-01-24T02:10:15.626Z,99.99
2018-01-24T02:11:15.607Z,99.99
2018-01-24T02:12:15.581Z,99.99
2018-01-24T02:13:15.559Z,99.99
2018-01-24T02:14:15.534Z,99.99
2018-01-24T02:15:15.508Z,99.99
2018-01-24T02:16:15.487Z,99.99
2018-01-24T02:17:15.463Z,99.99
2018-01-24T02:18:15.440Z,99.99
2018-01-24T02:19:15.415Z,99.99
2018-01-24T02:20:15.393Z,99.99
2018-01-24T02:21:15.374Z,99.99
2018-01-24T02:22:15.353Z,99.99
2018-01-24T02:23:15.324Z,99.99
2018-01-24T02:24:15.300Z,99.99
2018-01-24T02:25:15.279Z,99.99
2018-01-24T02:26:15.255Z,99.99
2018-01-24T02:27:15.229Z,99.99
2018-01-24T02:28:15.212Z,99.99
2018-01-24T02:29:15.187Z,99.99
2018-01-24T02:30:15.162Z,99.99
2018-01-24T02:31:15.142Z,99.99
2018-01-24T02:32:15.117Z,99.99
2018-01-24T02:33:15.094Z,99.99
2018-01-24T02:34:15.073Z,99.99
2018-01-24T02:35:14.805Z,99.99
2018-01-24T02:36:15.024Z,99.99
2018-01-24T02:37:14.999Z,99.99
2018-01-24T02:38:14.975Z,99.99
2018-01-24T02:39:14.954Z,99.99
2018-01-24T02:40:14.929Z,99.99
2018-01-24T02:41:14.659Z,99.99
2018-01-24T02:42:14.889Z,99.99
2018-01-24T02:43:14.860Z,99.99
2018-01-24T02:44:14.870Z,99.99
2018-01-24T02:45:14.565Z,99.99
2018-01-24T02:46:14.796Z,99.99
2018-01-24T02:47:14.767Z,99.99
2018-01-24T02:48:14.494Z,99.99
2018-01-24T02:49:14.717Z,99.99
2018-01-24T02:50:14.700Z,99.99
2018-01-24T02:51:14.671Z,99.99
2018-01-24T02:52:14.646Z,99.99
2018-01-24T02:53:14.380Z,99.99
2018-01-24T02:54:14.599Z,99.99
2018-01-24T02:55:14.334Z,99.99
2018-01-24T02:56:14.559Z,99.99
2018-01-24T02:57:14.529Z,99.99
2018-01-24T02:58:14.510Z,99.99
2018-01-24T02:59:14.238Z,99.99
2018-01-24T03:00:14.574Z,99.99
2018-01-24T03:01:14.440Z,99.99
2018-01-24T03:02:14.415Z,99.99
2018-01-24T03:03:14.387Z,99.99
2018-01-24T03:04:14.364Z,99.99
2018-01-24T03:05:14.347Z,99.99
2018-01-24T03:06:14.322Z,99.99
2018-01-24T03:07:14.049Z,99.99
2018-01-24T03:08:14.279Z,99.99
2018-01-24T03:09:14.253Z,99.99
2018-01-24T03:10:14.227Z,99.99
2018-01-24T03:11:14.256Z,99.99
2018-01-24T03:12:14.176Z,99.99
2018-01-24T03:13:13.907Z,99.99
2018-01-24T03:14:14.132Z,99.99
2018-01-24T03:15:13.861Z,99.99
2018-01-24T03:16:13.836Z,99.99
2018-01-24T03:17:13.818Z,99.99
2018-01-24T03:18:14.033Z,99.99
2018-01-24T03:19:14.014Z,99.99
2018-01-24T03:20:13.991Z,99.99
2018-01-24T03:21:13.967Z,99.99
2018-01-24T03:22:13.694Z,99.99
2018-01-24T03:23:14.021Z,99.99
2018-01-24T03:24:13.894Z,99.99
2018-01-24T03:25:13.626Z,99.99
2018-01-24T03:26:13.847Z,99.99
2018-01-24T03:27:13.578Z,99.99
2018-01-24T03:28:13.799Z,99.99
2018-01-24T03:29:13.775Z,99.99
2018-01-24T03:30:13.757Z,99.99
2018-01-24T03:31:13.732Z,99.99
2018-01-24T03:32:13.459Z,99.99
2018-01-24T03:33:13.681Z,99.99
2018-01-24T03:34:13.416Z,99.99
2018-01-24T03:35:13.638Z,99.99
2018-01-24T03:36:13.613Z,99.99
2018-01-24T03:37:13.586Z,99.99
2018-01-24T03:38:13.566Z,99.99
2018-01-24T03:39:13.543Z,99.99
2018-01-24T03:40:13.524Z,99.99
2018-01-24T03:41:13.495Z,99.99
2018-01-24T03:42:13.469Z,99.99
2018-01-24T03:43:13.450Z,99.99
2018-01-24T03:44:13.422Z,99.99
2018-01-24T03:45:13.400Z,99.99
2018-01-24T03:46:13.420Z,99.99
2018-01-24T03:47:13.401Z,99.99
2018-01-24T03:48:13.334Z,99.99
2018-01-24T03:49:13.306Z,99.99
2018-01-24T03:50:13.284Z,99.99
2018-01-24T03:51:13.255Z,99.99
2018-01-24T03:52:13.001Z,99.99
2018-01-24T03:53:13.209Z,99.99
2018-01-24T03:54:12.940Z,99.99
2018-01-24T03:55:13.163Z,99.99
2018-01-24T03:56:13.138Z,99.99
2018-01-24T03:57:13.117Z,99.99
2018-01-24T03:58:12.845Z,99.99
2018-01-24T03:59:13.070Z,99.99
2018-01-24T04:00:13.050Z,99.99
2018-01-24T04:01:12.777Z,99.99
2018-01-24T04:02:12.753Z,99.99
2018-01-24T04:03:12.972Z,99.99
2018-01-24T04:04:12.955Z,99.99
2018-01-24T04:05:12.923Z,99.99
2018-01-24T04:06:12.910Z,99.99
2018-01-24T04:07:12.637Z,99.99
2018-01-24T04:08:12.856Z,99.99
2018-01-24T04:09:12.833Z,99.99
2018-01-24T04:10:12.811Z,99.99
2018-01-24T04:11:12.787Z,99.99
2018-01-24T04:12:12.764Z,99.99
2018-01-24T04:13:12.738Z,99.99
2018-01-24T04:14:12.714Z,99.99
2018-01-24T04:15:12.446Z,99.99
2018-01-24T04:16:12.671Z,99.99
2018-01-24T04:17:12.643Z,99.99
2018-01-24T04:18:12.623Z,99.99
2018-01-24T04:19:12.599Z,99.99
2018-01-24T04:20:12.575Z,99.99
2018-01-24T04:21:12.550Z,99.99
2018-01-24T04:22:12.530Z,99.99
2018-01-24T04:23:12.505Z,99.99
2018-01-24T04:24:12.483Z,99.99
2018-01-24T04:25:12.459Z,99.99
2018-01-24T04:26:12.192Z,99.99
2018-01-24T04:27:12.412Z,99.99
2018-01-24T04:28:12.390Z,99.99
2018-01-24T04:29:12.368Z,99.99
2018-01-24T04:30:12.354Z,99.99
2018-01-24T04:31:12.324Z,99.99
2018-01-24T04:32:12.049Z,99.99
2018-01-24T04:33:12.272Z,99.99
2018-01-24T04:34:12.249Z,99.99
2018-01-24T04:35:11.979Z,99.99
2018-01-24T04:36:12.202Z,99.99
2018-01-24T04:37:12.177Z,99.99
2018-01-24T04:38:12.162Z,99.99
2018-01-24T04:39:12.129Z,99.99
2018-01-24T04:40:11.862Z,99.99
2018-01-24T04:41:12.102Z,99.99
2018-01-24T04:42:12.066Z,99.99
2018-01-24T04:43:11.793Z,99.99
2018-01-24T04:44:12.015Z,99.99
2018-01-24T04:45:11.993Z,99.99
2018-01-24T04:46:11.966Z,99.99
2018-01-24T04:47:11.946Z,99.99
2018-01-24T04:48:11.677Z,99.99
2018-01-24T04:49:11.899Z,99.99
2018-01-24T04:50:11.879Z,99.99
2018-01-24T04:51:11.852Z,99.99
2018-01-24T04:52:11.583Z,99.99
2018-01-24T04:53:11.560Z,99.99
2018-01-24T04:54:11.537Z,99.99
2018-01-24T04:55:11.759Z,99.99
2018-01-24T04:56:11.487Z,99.99
2018-01-24T04:57:11.711Z,99.99
2018-01-24T04:58:11.446Z,99.99
2018-01-24T04:59:11.723Z,99.99
2018-01-24T05:00:11.646Z,99.99
2018-01-24T05:01:11.620Z,99.99
2018-01-24T05:02:11.593Z,99.99
2018-01-24T05:03:11.570Z,99.99
2018-01-24T05:04:11.549Z,99.99
2018-01-24T05:05:11.528Z,99.99
2018-01-24T05:06:11.501Z,99.99
2018-01-24T05:07:11.482Z,99.99
2018-01-24T05:08:11.210Z,99.99
2018-01-24T05:09:11.190Z,99.99
2018-01-24T05:10:11.412Z,99.99
2018-01-24T05:11:11.389Z,99.99
2018-01-24T05:12:11.364Z,99.99
2018-01-24T05:13:11.344Z,99.99
2018-01-24T05:14:11.071Z,99.99
2018-01-24T05:15:11.302Z,99.99
2018-01-24T05:16:11.272Z,99.99
2018-01-24T05:17:11.246Z,99.99
2018-01-24T05:18:11.224Z,99.99
2018-01-24T05:19:11.200Z,99.99
2018-01-24T05:20:11.179Z,99.99
2018-01-24T05:21:11.214Z,99.99
2018-01-24T05:22:11.132Z,99.99
2018-01-24T05:23:11.114Z,99.99
2018-01-24T05:24:11.084Z,99.99
2018-01-24T05:25:11.064Z,99.99
2018-01-24T05:26:10.795Z,99.99
2018-01-24T05:27:11.018Z,99.99
2018-01-24T05:28:11.000Z,99.99
2018-01-24T05:29:10.971Z,99.99
2018-01-24T05:30:10.947Z,99.99
2018-01-24T05:31:10.678Z,99.99
2018-01-24T05:32:10.900Z,99.99
2018-01-24T05:33:10.640Z,99.99
2018-01-24T05:34:10.856Z,99.99
2018-01-24T05:35:10.834Z,99.99
2018-01-24T05:36:10.807Z,99.99
2018-01-24T05:37:10.783Z,99.99
2018-01-24T05:38:10.764Z,99.99
2018-01-24T05:39:10.741Z,99.99
2018-01-24T05:40:10.718Z,99.99
2018-01-24T05:41:10.695Z,99.99
2018-01-24T05:42:10.669Z,99.99
2018-01-24T05:43:10.647Z,99.99
2018-01-24T05:44:10.627Z,99.99
2018-01-24T05:45:10.356Z,99.99
2018-01-24T05:46:10.583Z,99.99
2018-01-24T05:47:10.308Z,99.99
2018-01-24T05:48:10.286Z,99.99
2018-01-24T05:49:10.515Z,99.99
2018-01-24T05:50:10.490Z,99.99
2018-01-24T05:51:10.465Z,99.99
2018-01-24T05:52:10.441Z,99.99
2018-01-24T05:53:10.418Z,99.99
2018-01-24T05:54:10.396Z,99.99
2018-01-24T05:55:10.126Z,99.99
2018-01-24T05:56:10.353Z,99.99
2018-01-24T05:57:10.329Z,99.99
2018-01-24T05:58:10.301Z,99.99
2018-01-24T05:59:10.036Z,99.99
2018-01-24T06:00:10.256Z,99.99
2018-01-24T06:01:10.240Z,99.99
2018-01-24T06:02:10.213Z,99.99
2018-01-24T06:03:10.190Z,99.99
2018-01-24T06:04:10.168Z,99.99
2018-01-24T06:05:10.148Z,99.99
2018-01-24T06:06:10.122Z,99.99
2018-01-24T06:07:10.101Z,99.99
2018-01-24T06:08:10.076Z,99.99
2018-01-24T06:09:10.054Z,99.99
2018-01-24T06:10:10.032Z,99.99
2018-01-24T06:11:10.006Z,99.99
2018-01-24T06:12:09.986Z,99.99
2018-01-24T06:13:09.960Z,99.99
2018-01-24T06:14:09.939Z,99.99
2018-01-24T06:15:09.917Z,99.99
2018-01-24T06:16:09.891Z,99.99
2018-01-24T06:17:09.868Z,99.99
2018-01-24T06:18:09.851Z,99.99
2018-01-24T06:19:09.828Z,99.99
2018-01-24T06:20:09.799Z,99.99
2018-01-24T06:21:09.531Z,99.99
2018-01-24T06:22:09.511Z,99.99
2018-01-24T06:23:09.735Z,99.99
2018-01-24T06:24:09.707Z,99.99
2018-01-24T06:25:09.689Z,99.99
2018-01-24T06:26:09.661Z,99.99
2018-01-24T06:27:09.396Z,99.99
2018-01-24T06:28:09.622Z,99.99
2018-01-24T06:29:09.351Z,99.99
2018-01-24T06:30:09.326Z,99.99
2018-01-24T06:31:09.547Z,99.99
2018-01-24T06:32:09.594Z,99.99
2018-01-24T06:33:09.501Z,99.99
2018-01-24T06:34:09.487Z,99.99
2018-01-24T06:35:09.461Z,99.99
2018-01-24T06:36:09.437Z,99.99
2018-01-24T06:37:09.411Z,99.99
2018-01-24T06:38:09.389Z,99.99
2018-01-24T06:39:09.369Z,99.99
2018-01-24T06:40:09.098Z,99.99
2018-01-24T06:41:09.321Z,99.99
2018-01-24T06:42:09.300Z,99.99
2018-01-24T06:43:09.274Z,99.99
2018-01-24T06:44:09.008Z,99.99
2018-01-24T06:45:08.984Z,99.99
2018-01-24T06:46:09.211Z,99.99
2018-01-24T06:47:09.189Z,99.99
2018-01-24T06:48:09.205Z,99.99
2018-01-24T06:49:09.140Z,99.99
2018-01-24T06:50:09.114Z,99.99
2018-01-24T06:51:09.092Z,99.99
2018-01-24T06:52:09.067Z,99.99
2018-01-24T06:53:09.049Z,99.99
2018-01-24T06:54:08.778Z,99.99
2018-01-24T06:55:09.001Z,99.99
2018-01-24T06:56:08.733Z,99.99
2018-01-24T06:57:08.959Z,99.99
2018-01-24T06:58:08.931Z,99.99
2018-01-24T06:59:08.919Z,99.99
2018-01-24T07:00:08.641Z,99.99
2018-01-24T07:01:08.864Z,99.99
2018-01-24T07:02:08.839Z,99.99
2018-01-24T07:03:08.571Z,99.99
2018-01-24T07:04:08.795Z,99.99
2018-01-24T07:05:08.774Z,99.99
2018-01-24T07:06:08.752Z,99.99
2018-01-24T07:07:08.730Z,99.99
2018-01-24T07:08:08.712Z,99.99
2018-01-24T07:09:08.682Z,99.99
2018-01-24T07:10:08.654Z,99.99
2018-01-24T07:11:08.635Z,99.99
2018-01-24T07:12:08.611Z,99.99
2018-01-24T07:13:08.343Z,99.99
2018-01-24T07:14:08.319Z,99.99
2018-01-24T07:15:08.297Z,99.99
2018-01-24T07:16:08.271Z,99.99
2018-01-24T07:17:08.250Z,99.99
2018-01-24T07:18:08.228Z,99.99
2018-01-24T07:19:08.456Z,99.99
2018-01-24T07:20:08.181Z,99.99
2018-01-24T07:21:08.159Z,99.99
2018-01-24T07:22:08.135Z,99.99
2018-01-24T07:23:08.250Z,99.99
2018-01-24T07:24:08.334Z,99.99
2018-01-24T07:25:08.065Z,99.99
2018-01-24T07:26:08.045Z,99.99
2018-01-24T07:27:08.024Z,99.99
2018-01-24T07:28:07.998Z,99.99
2018-01-24T07:29:07.976Z,99.99
2018-01-24T07:30:08.200Z,99.99
2018-01-24T07:31:08.236Z,99.99
2018-01-24T07:32:08.163Z,99.99
2018-01-24T07:33:08.128Z,99.99
2018-01-24T07:34:07.864Z,99.99
2018-01-24T07:35:08.094Z,99.99
2018-01-24T07:36:07.815Z,99.99
2018-01-24T07:37:08.041Z,99.99
2018-01-24T07:38:07.769Z,99.99
2018-01-24T07:39:07.748Z,99.99
2018-01-24T07:40:07.972Z,99.99
2018-01-24T07:41:07.704Z,99.99
2018-01-24T07:42:07.928Z,99.99
2018-01-24T07:43:07.904Z,99.99
2018-01-24T07:44:07.636Z,99.99
2018-01-24T07:45:07.915Z,99.99
2018-01-24T07:46:07.591Z,99.99
2018-01-24T07:47:07.822Z,99.99
2018-01-24T07:48:07.791Z,99.99
2018-01-24T07:49:07.770Z,99.99
2018-01-24T07:50:07.752Z,99.99
2018-01-24T07:51:07.480Z,99.99
2018-01-24T07:52:07.455Z,99.99
2018-01-24T07:53:07.434Z,99.99
2018-01-24T07:54:07.660Z,99.99
2018-01-24T07:55:07.638Z,99.99
2018-01-24T07:56:07.609Z,99.99
2018-01-24T07:57:07.590Z,99.99
2018-01-24T07:58:07.566Z,99.99
2018-01-24T07:59:07.369Z,99.99
2018-01-24T08:00:07.280Z,99.99
2018-01-24T08:01:07.501Z,99.99
2018-01-24T08:02:07.482Z,99.99
2018-01-24T08:03:07.209Z,99.99
2018-01-24T08:04:07.440Z,99.99
2018-01-24T08:05:07.408Z,99.99
2018-01-24T08:06:07.563Z,99.99
2018-01-24T08:07:07.551Z,99.99
2018-01-24T08:08:07.361Z,99.99
2018-01-24T08:09:07.077Z,99.99
2018-01-24T08:10:07.055Z,99.99
2018-01-24T08:11:07.280Z,99.99
2018-01-24T08:12:07.213Z,99.99
2018-01-24T08:13:07.332Z,99.99
2018-01-24T08:14:06.965Z,99.99
2018-01-24T08:15:07.534Z,99.99
2018-01-24T08:16:07.168Z,99.99
2018-01-24T08:17:07.149Z,99.99
2018-01-24T08:18:06.880Z,99.99
2018-01-24T08:19:06.863Z,99.99
2018-01-24T08:20:06.841Z,99.99
2018-01-24T08:21:07.058Z,99.99
2018-01-24T08:22:07.034Z,99.99
2018-01-24T08:23:07.013Z,99.99
2018-01-24T08:24:07.067Z,99.99
2018-01-24T08:25:06.977Z,99.99
2018-01-24T08:26:06.946Z,99.99
2018-01-24T08:27:06.926Z,99.99
2018-01-24T08:28:07.348Z,99.99
2018-01-24T08:29:07.145Z,99.99
2018-01-24T08:30:06.616Z,99.75
2018-01-24T08:31:06.841Z,99.85
2018-01-24T08:32:06.750Z,99.99
2018-01-24T08:33:07.031Z,99.99
2018-01-24T08:34:07.013Z,99.9
2018-01-24T08:35:06.751Z,99.95
2018-01-24T08:36:06.975Z,99.9
2018-01-24T08:37:06.462Z,99.99
2018-01-24T08:38:06.783Z,99.46
2018-01-24T08:41:22.165Z,99.99
2018-01-24T08:42:22.156Z,99.61
2018-01-24T08:43:22.790Z,99.42
2018-01-24T08:44:22.275Z,99.61
2018-01-24T08:45:21.777Z,99.56
2018-01-24T08:46:21.726Z,99.9
2018-01-24T08:47:22.251Z,99.9
2018-01-24T08:48:22.063Z,99.71
2018-01-24T08:49:22.281Z,99.52
2018-01-24T08:50:22.179Z,99.13
2018-01-24T08:51:21.999Z,99.42
2018-01-24T08:52:22.609Z,99.23
2018-01-24T08:53:22.487Z,99.04
2018-01-24T08:54:22.182Z,98.94
2018-01-24T08:55:22.253Z,99.23
2018-01-24T08:56:22.354Z,98.85
2018-01-24T08:57:21.890Z,98.75
2018-01-24T08:58:21.834Z,98.75
2018-01-24T08:59:22.096Z,98.94
2018-01-24T09:00:21.599Z,98.75
2018-01-24T09:01:21.861Z,98.85
2018-01-24T09:02:21.230Z,98.85
2018-01-24T09:03:21.975Z,98.66
2018-01-24T09:04:21.800Z,99.04
2018-01-24T09:05:21.953Z,98.94
2018-01-24T09:06:21.608Z,98.85
2018-01-24T09:07:21.680Z,98.27
2018-01-24T09:08:21.273Z,98.47
2018-01-24T09:09:21.786Z,98.56
2018-01-24T09:10:21.556Z,97.99
2018-01-24T09:11:22.026Z,98.56
2018-01-24T09:12:22.295Z,98.85
2018-01-24T09:13:22.127Z,98.94
2018-01-24T09:14:22.437Z,98.47
2018-01-24T09:15:21.475Z,98.75
2018-01-24T09:16:22.477Z,98.37
2018-01-24T09:17:22.228Z,98.18
2018-01-24T09:18:22.195Z,98.18
2018-01-24T09:19:23.021Z,98.18
2018-01-24T09:20:22.293Z,97.89
2018-01-24T09:21:21.349Z,97.75
2018-01-24T09:22:21.377Z,97.75
2018-01-24T09:23:21.971Z,98.08
2018-01-24T09:24:21.765Z,97.22
2018-01-24T09:25:22.434Z,97.56
2018-01-24T09:26:21.370Z,97.27
2018-01-24T09:27:22.371Z,96.98
2018-01-24T09:28:21.359Z,96.98
2018-01-24T09:29:21.844Z,96.32
2018-01-24T09:30:21.280Z,96.7
2018-01-24T09:31:23.668Z,96.13
2018-01-24T09:32:24.034Z,96.42
2018-01-24T09:33:21.461Z,96.22
2018-01-24T09:34:20.893Z,95.94
2018-01-24T09:35:21.453Z,95.75
2018-01-24T09:36:21.303Z,95.65
2018-01-24T09:37:21.252Z,95.32
2018-01-24T09:38:21.096Z,95.36
2018-01-24T09:39:21.240Z,95.36
2018-01-24T09:40:20.691Z,95.36
2018-01-24T09:41:21.346Z,94.84
2018-01-24T09:42:20.960Z,95.08
2018-01-24T09:43:20.551Z,94.98
2018-01-24T09:44:20.946Z,94.7
2018-01-24T09:45:21.940Z,94.6
2018-01-24T09:46:21.148Z,94.6
2018-01-24T09:47:21.091Z,94.89
2018-01-24T09:48:21.615Z,94.6
2018-01-24T09:49:21.111Z,94.79
2018-01-24T09:50:21.501Z,94.7
2018-01-24T09:51:20.882Z,94.89
2018-01-24T09:52:20.338Z,94.7
2018-01-24T09:53:21.311Z,94.6
2018-01-24T09:54:21.756Z,94.7
2018-01-24T09:55:20.363Z,94.98
2018-01-24T09:56:20.828Z,95.08
2018-01-24T09:57:21.041Z,94.89
2018-01-24T09:58:23.501Z,95.08
2018-01-24T09:59:20.686Z,94.98
2018-01-24T10:00:19.865Z,94.98
2018-01-24T10:01:22.745Z,94.98
2018-01-24T10:02:21.581Z,94.51
2018-01-24T10:03:22.684Z,94.46
2018-01-24T10:04:21.204Z,94.03
2018-01-24T10:05:21.560Z,94.03
2018-01-24T10:06:20.292Z,94.36
2018-01-24T10:07:20.792Z,94.36
2018-01-24T10:08:21.691Z,93.98
2018-01-24T10:09:21.205Z,94.17
2018-01-24T10:10:21.116Z,94.17
2018-01-24T10:11:24.491Z,93.21
2018-01-24T10:12:20.910Z,93.31
2018-01-24T10:13:20.708Z,93.6
2018-01-24T10:14:21.139Z,93.12
2018-01-24T10:15:25.512Z,92.74
2018-01-24T10:16:20.045Z,92.93
2018-01-24T10:17:20.568Z,92.16
2018-01-24T10:18:20.319Z,92.26
2018-01-24T10:19:19.695Z,92.3
2018-01-24T10:20:20.576Z,91.83
2018-01-24T10:21:19.861Z,91.35
2018-01-24T10:22:19.744Z,91.74
2018-01-24T10:23:20.720Z,91.54
2018-01-24T10:24:20.760Z,91.25
2018-01-24T10:25:20.345Z,91.16
2018-01-24T10:26:20.521Z,91.16
2018-01-24T10:27:20.106Z,90.39
2018-01-24T10:28:20.392Z,90.2
2018-01-24T10:29:21.424Z,90.01
2018-01-24T10:30:20.389Z,90.39
2018-01-24T10:31:20.120Z,90.2
2018-01-24T10:32:20.746Z,89.82
2018-01-24T10:33:20.541Z,90.2
2018-01-24T10:34:22.735Z,89.82
2018-01-24T10:35:20.607Z,89.53
2018-01-24T10:36:19.892Z,89.44
2018-01-24T10:37:19.990Z,89.63
2018-01-24T10:38:20.182Z,89.44
2018-01-24T10:39:20.538Z,89.53
2018-01-24T10:40:18.984Z,89.92
2018-01-24T10:41:18.962Z,89.53
2018-01-24T10:42:18.998Z,89.34
2018-01-24T10:43:18.683Z,89.34
2018-01-24T10:44:18.954Z,89.73
2018-01-24T10:45:18.991Z,89.53
2018-01-24T10:46:18.628Z,89.63
2018-01-24T10:47:18.854Z,89.25
2018-01-24T10:48:18.832Z,89.25
2018-01-24T10:49:18.571Z,89.06
2018-01-24T10:50:18.798Z,89.06
2018-01-24T10:51:18.782Z,89.06
2018-01-24T10:52:18.762Z,89.06
2018-01-24T10:53:18.739Z,88.96
2018-01-24T10:54:18.726Z,88.96
2018-01-24T10:55:18.706Z,89.44
2018-01-24T10:56:18.686Z,89.53
2018-01-24T10:57:18.668Z,89.63
2018-01-24T10:58:18.415Z,89.53
2018-01-24T10:59:18.406Z,89.53
2018-01-24T11:00:19.311Z,89.73
2018-01-24T11:01:18.591Z,90.49
2018-01-24T11:02:18.572Z,90.39
2018-01-24T11:03:18.559Z,90.11
2018-01-24T11:04:18.538Z,90.11
2018-01-24T11:05:18.519Z,90.3
2018-01-24T11:06:18.499Z,90.2
2018-01-24T11:07:18.479Z,90.2
2018-01-24T11:08:18.462Z,90.3
2018-01-24T11:09:18.441Z,90.2
2018-01-24T11:10:18.470Z,90.39
2018-01-24T11:11:18.406Z,89.92
2018-01-24T11:12:18.392Z,90.3
2018-01-24T11:13:18.371Z,89.92
2018-01-24T11:14:18.350Z,89.73
2018-01-24T11:15:18.331Z,89.73
2018-01-24T11:16:18.310Z,89.53
2018-01-24T11:17:18.297Z,89.44
2018-01-24T11:18:18.273Z,89.44
2018-01-24T11:19:18.256Z,89.73
2018-01-24T11:20:18.027Z,89.06
2018-01-24T11:21:18.215Z,89.25
2018-01-24T11:22:18.210Z,88.96
2018-01-24T11:23:17.941Z,89.25
2018-01-24T11:24:18.162Z,89.06
2018-01-24T11:25:18.145Z,89.06
2018-01-24T11:26:18.124Z,89.15
2018-01-24T11:27:18.105Z,88.68
2018-01-24T11:28:17.874Z,88.77
2018-01-24T11:29:18.069Z,89.06
2018-01-24T11:30:18.050Z,89.1
2018-01-24T11:31:18.035Z,88.34
2018-01-24T11:32:18.016Z,87.95
2018-01-24T11:33:17.998Z,88.43
2018-01-24T11:34:17.985Z,88.05
2018-01-24T11:35:17.716Z,88.15
2018-01-24T11:36:17.942Z,87.86
2018-01-24T11:37:17.923Z,87.29
2018-01-24T11:38:17.909Z,87.48
2018-01-24T11:39:17.894Z,87.48
2018-01-24T11:40:17.890Z,87.48
2018-01-24T11:41:17.903Z,87.38
2018-01-24T11:42:17.596Z,87.48
2018-01-24T11:43:17.885Z,87.48
2018-01-24T11:44:17.810Z,87.09
2018-01-24T11:45:17.784Z,87
2018-01-24T11:46:17.768Z,87
2018-01-24T11:47:17.751Z,86.52
2018-01-24T11:48:17.737Z,86.14
2018-01-24T11:49:17.767Z,85.94
2018-01-24T11:50:17.705Z,85.94
2018-01-24T11:51:17.687Z,86.23
2018-01-24T11:52:17.671Z,85.57
2018-01-24T11:53:17.653Z,85.75
2018-01-24T11:54:17.528Z,85.75
2018-01-24T11:55:17.613Z,85.75
2018-01-24T11:56:17.367Z,86.33
2018-01-24T11:57:17.594Z,86.14
2018-01-24T11:58:17.566Z,86.14
2018-01-24T11:59:17.791Z,85.75
2018-01-24T12:00:17.530Z,86.23
2018-01-24T12:01:17.510Z,86.14
2018-01-24T12:02:17.492Z,85.85
2018-01-24T12:03:17.478Z,86.23
2018-01-24T12:04:17.217Z,85.66
2018-01-24T12:05:17.442Z,85.75
2018-01-24T12:06:17.422Z,85.47
2018-01-24T12:07:17.416Z,85.85
2018-01-24T12:08:17.388Z,85.66
2018-01-24T12:09:17.374Z,85.75
2018-01-24T12:10:17.351Z,85.57
2018-01-24T12:11:17.087Z,86.52
2018-01-24T12:12:17.318Z,86.33
2018-01-24T12:13:17.297Z,85.47
2018-01-24T12:14:17.036Z,85.47
2018-01-24T12:15:17.268Z,86.33
2018-01-24T12:16:17.248Z,86.14
2018-01-24T12:17:17.226Z,85.85
2018-01-24T12:18:17.213Z,85.66
2018-01-24T12:19:17.191Z,85.57
2018-01-24T12:20:17.176Z,85.66
2018-01-24T12:21:17.169Z,85.66
2018-01-24T12:22:17.141Z,85.57
2018-01-24T12:23:17.124Z,85.18
2018-01-24T12:24:17.102Z,85.38
2018-01-24T12:25:17.087Z,85.47
2018-01-24T12:26:17.071Z,85.47
2018-01-24T12:27:17.051Z,85.28
2018-01-24T12:28:17.035Z,85.38
2018-01-24T12:29:17.015Z,84.23
2018-01-24T12:30:16.752Z,84.32
2018-01-24T12:31:16.982Z,84.36
2018-01-24T12:32:16.966Z,84.61
2018-01-24T12:33:16.954Z,84.46
2018-01-24T12:34:16.931Z,84.75
2018-01-24T12:35:16.912Z,84.65
2018-01-24T12:36:16.647Z,84.65
2018-01-24T12:37:16.882Z,84.27
2018-01-24T12:38:16.867Z,83.98
2018-01-24T12:39:16.838Z,83.89
2018-01-24T12:40:16.864Z,84.36
2018-01-24T12:41:16.558Z,84.17
2018-01-24T12:42:16.542Z,83.79
2018-01-24T12:43:16.768Z,83.5
2018-01-24T12:44:16.751Z,83.89
2018-01-24T12:45:16.734Z,84.27
2018-01-24T12:46:16.718Z,83.98
2018-01-24T12:47:16.703Z,84.27
2018-01-24T12:48:16.682Z,83.79
2018-01-24T12:49:16.421Z,83.98
2018-01-24T12:50:16.647Z,84.17
2018-01-24T12:51:16.636Z,83.5
2018-01-24T12:52:16.615Z,83.89
2018-01-24T12:53:16.350Z,83.79
2018-01-24T12:54:16.334Z,83.79
2018-01-24T12:55:16.562Z,83.31